createdAt,value
2022-11-26T00:01:59.914Z,48.40
2022-11-26T00:04:27.370Z,58.03
2022-11-26T00:06:59.853Z,61.30
2022-11-26T00:09:27.126Z,46.90
2022-11-26T00:11:54.534Z,55.67
2022-11-26T00:14:21.786Z,53.33
2022-11-26T00:16:49.199Z,58.72
2022-11-26T00:19:16.634Z,51.05
2022-11-26T00:21:43.872Z,52.90
2022-11-26T00:24:28.734Z,51.00
2022-11-26T00:26:58.114Z,54.22
2022-11-26T00:31:52.580Z,57.35
2022-11-26T00:34:19.923Z,49.75
2022-11-26T00:36:48.338Z,52.20
2022-11-26T00:39:21.779Z,53.93
2022-11-26T00:41:51.329Z,53.60
2022-11-26T00:44:23.837Z,45.22
2022-11-26T00:46:51.775Z,52.78
2022-11-26T00:49:19.213Z,53.22
2022-11-26T00:51:47.118Z,51.38
2022-11-26T00:54:16.923Z,53.00
2022-11-26T00:56:44.321Z,56.83
2022-11-26T00:59:14.867Z,54.17
2022-11-26T01:01:42.467Z,60.63
2022-11-26T01:04:10.126Z,57.10
2022-11-26T01:06:40.117Z,56.63
2022-11-26T01:09:12.205Z,54.53
2022-11-26T01:11:39.526Z,53.55
2022-11-26T01:14:09.988Z,53.72
2022-11-26T01:16:39.363Z,51.95
2022-11-26T01:19:09.387Z,55.78
2022-11-26T01:21:36.585Z,61.70
2022-11-26T01:24:03.891Z,56.20
2022-11-26T01:26:49.473Z,55.70
2022-11-26T01:29:18.038Z,49.78
2022-11-26T01:31:45.611Z,49.67
2022-11-26T01:34:13.301Z,55.30
2022-11-26T01:36:42.023Z,50.83
2022-11-26T01:39:20.934Z,57.90
2022-11-26T01:42:10.752Z,52.75
2022-11-26T01:44:39.212Z,61.35
2022-11-26T01:47:28.710Z,56.33
2022-11-26T01:50:28.175Z,50.72
2022-11-26T01:53:14.823Z,60.92
2022-11-26T01:55:48.626Z,52.83
2022-11-26T01:58:19.893Z,56.35
2022-11-26T02:00:49.180Z,60.88
2022-11-26T02:05:52.136Z,63.97
2022-11-26T02:08:19.924Z,67.18
2022-11-26T02:10:47.287Z,62.28
2022-11-26T02:13:14.716Z,58.42
2022-11-26T02:16:00.461Z,58.85
2022-11-26T02:18:32.835Z,68.65
2022-11-26T02:21:10.612Z,64.25
2022-11-26T02:24:07.426Z,79.15
2022-11-26T02:27:09.600Z,59.90
2022-11-26T02:30:06.084Z,66.28
2022-11-26T02:32:54.566Z,67.30
2022-11-26T02:35:31.869Z,63.35
2022-11-26T02:38:04.129Z,70.28
2022-11-26T02:40:31.708Z,72.85
2022-11-26T02:42:58.964Z,75.78
2022-11-26T02:45:29.156Z,75.63
2022-11-26T02:47:59.281Z,82.20
2022-11-26T02:50:33.464Z,75.15
2022-11-26T02:53:01.519Z,78.70
2022-11-26T02:55:35.075Z,78.80
2022-11-26T02:58:02.526Z,70.32
2022-11-26T03:00:30.289Z,76.57
2022-11-26T03:03:22.915Z,80.57
2022-11-26T03:05:56.464Z,78.47
2022-11-26T03:08:24.243Z,86.95
2022-11-26T03:10:51.488Z,86.10
2022-11-26T03:13:18.886Z,77.68
2022-11-26T03:15:46.184Z,75.95
2022-11-26T03:18:13.424Z,75.50
2022-11-26T03:20:40.808Z,88.35
2022-11-26T03:23:08.253Z,80.85
2022-11-26T03:25:35.900Z,84.68
2022-11-26T03:28:03.348Z,88.13
2022-11-26T03:30:30.605Z,87.70
2022-11-26T03:32:57.982Z,86.25
2022-11-26T03:35:25.222Z,81.38
2022-11-26T03:37:52.456Z,79.47
2022-11-26T03:40:20.122Z,92.65
2022-11-26T03:42:47.425Z,80.10
2022-11-26T03:45:14.730Z,80.78
2022-11-26T03:47:42.010Z,82.15
2022-11-26T03:50:09.808Z,81.35
2022-11-26T03:52:37.281Z,89.22
2022-11-26T03:55:04.809Z,85.55
2022-11-26T03:57:32.065Z,76.63
2022-11-26T03:59:59.450Z,86.57
2022-11-26T04:02:26.707Z,77.45
2022-11-26T04:04:53.987Z,77.18
2022-11-26T04:07:21.226Z,82.22
2022-11-26T04:09:48.519Z,88.82
2022-11-26T04:12:15.776Z,73.90
2022-11-26T04:14:43.073Z,83.05
2022-11-26T04:17:10.532Z,85.20
2022-11-26T04:19:38.763Z,71.10
2022-11-26T04:22:05.978Z,80.90
2022-11-26T04:24:33.226Z,91.22
2022-11-26T04:27:00.478Z,76.95
2022-11-26T04:29:27.731Z,72.28
2022-11-26T04:31:55.309Z,87.68
2022-11-26T04:34:22.585Z,72.60
2022-11-26T04:36:49.842Z,79.07
2022-11-26T04:39:17.258Z,79.63
2022-11-26T04:41:44.523Z,78.22
2022-11-26T04:44:11.779Z,84.25
2022-11-26T04:46:39.106Z,72.65
2022-11-26T04:49:06.433Z,82.55
2022-11-26T04:51:33.683Z,73.68
2022-11-26T04:54:03.366Z,83.20
2022-11-26T04:56:31.508Z,79.43
2022-11-26T04:58:58.722Z,68.38
2022-11-26T05:01:26.214Z,62.75
2022-11-26T05:03:53.716Z,72.85
2022-11-26T05:06:20.928Z,75.05
2022-11-26T05:08:48.138Z,66.95
2022-11-26T05:11:15.314Z,70.70
2022-11-26T05:13:42.866Z,77.15
2022-11-26T05:16:10.294Z,76.43
2022-11-26T05:18:37.506Z,75.10
2022-11-26T05:21:08.095Z,68.70
2022-11-26T05:23:35.316Z,59.25
2022-11-26T05:26:02.828Z,67.65
2022-11-26T05:28:30.117Z,66.63
2022-11-26T05:31:02.093Z,66.18
2022-11-26T05:33:29.733Z,75.70
2022-11-26T05:35:57.183Z,64.53
2022-11-26T05:38:24.835Z,67.75
2022-11-26T05:40:52.080Z,74.07
2022-11-26T05:43:19.543Z,71.70
2022-11-26T05:45:47.231Z,70.78
2022-11-26T05:48:14.994Z,51.92
2022-11-26T05:50:42.306Z,63.45
2022-11-26T05:53:09.566Z,54.38
2022-11-26T05:55:36.905Z,56.78
2022-11-26T05:58:04.417Z,58.85
2022-11-26T06:00:31.750Z,55.88
2022-11-26T06:02:59.262Z,61.05
2022-11-26T06:05:26.744Z,58.63
2022-11-26T06:07:54.016Z,44.17
2022-11-26T06:10:21.428Z,60.92
2022-11-26T06:12:49.897Z,47.63
2022-11-26T06:15:17.191Z,59.27
2022-11-26T06:17:44.391Z,53.35
2022-11-26T06:20:12.680Z,54.80
2022-11-26T06:22:42.079Z,50.08
2022-11-26T06:25:11.631Z,56.78
2022-11-26T06:27:55.413Z,47.47
2022-11-26T06:30:22.765Z,55.53
2022-11-26T06:32:50.328Z,45.47
2022-11-26T06:35:17.758Z,57.45
2022-11-26T06:37:45.086Z,50.75
2022-11-26T06:40:17.762Z,47.25
2022-11-26T06:42:49.918Z,45.30
2022-11-26T06:45:17.329Z,53.67
2022-11-26T06:47:45.803Z,45.72
2022-11-26T06:50:13.245Z,56.60
2022-11-26T06:52:40.450Z,50.08
2022-11-26T06:55:07.957Z,47.97
2022-11-26T06:57:35.337Z,49.55
2022-11-26T07:00:03.288Z,44.05
2022-11-26T07:02:30.581Z,52.75
2022-11-26T07:04:57.903Z,47.80
2022-11-26T07:07:25.195Z,53.78
2022-11-26T07:09:52.633Z,39.17
2022-11-26T07:12:19.873Z,44.53
2022-11-26T07:14:47.206Z,47.50
2022-11-26T07:17:14.423Z,44.75
2022-11-26T07:19:41.770Z,41.67
2022-11-26T07:22:09.060Z,45.28
2022-11-26T07:24:36.677Z,52.05
2022-11-26T07:27:04.054Z,55.38
2022-11-26T07:29:31.327Z,50.42
2022-11-26T07:31:58.662Z,44.00
2022-11-26T07:34:25.942Z,43.70
2022-11-26T07:36:57.889Z,45.42
2022-11-26T07:39:25.519Z,49.33
2022-11-26T07:41:52.921Z,46.20
2022-11-26T07:44:20.201Z,36.60
2022-11-26T07:46:47.615Z,38.55
2022-11-26T07:49:14.866Z,41.33
2022-11-26T07:51:42.127Z,34.85
2022-11-26T07:54:09.621Z,37.15
2022-11-26T07:56:36.960Z,37.90
2022-11-26T07:59:05.463Z,42.88
2022-11-26T08:01:37.683Z,44.63
2022-11-26T08:04:06.011Z,44.00
2022-11-26T08:06:33.734Z,41.45
2022-11-26T08:09:02.405Z,51.83
2022-11-26T08:11:32.070Z,52.92
2022-11-26T08:14:01.654Z,47.05
2022-11-26T08:16:29.519Z,46.50
2022-11-26T08:18:58.616Z,44.85
2022-11-26T08:21:26.106Z,47.45
2022-11-26T08:23:59.659Z,46.70
2022-11-26T08:26:34.669Z,51.72
2022-11-26T08:29:04.511Z,41.63
2022-11-26T08:31:31.865Z,40.33
2022-11-26T08:34:00.226Z,47.17
2022-11-26T08:36:28.509Z,44.20
2022-11-26T08:38:56.073Z,36.30
2022-11-26T08:41:23.729Z,45.15
2022-11-26T08:44:06.195Z,46.10
2022-11-26T08:46:34.935Z,48.42
2022-11-26T08:49:02.226Z,61.00
2022-11-26T08:51:29.567Z,42.85
2022-11-26T08:53:56.819Z,59.47
2022-11-26T08:56:24.115Z,50.45
2022-11-26T08:58:51.750Z,47.25
2022-11-26T09:01:24.978Z,42.55
2022-11-26T09:03:54.132Z,43.38
2022-11-26T09:06:22.402Z,44.65
2022-11-26T09:09:08.243Z,46.75
2022-11-26T09:11:38.864Z,36.05
2022-11-26T09:14:06.312Z,52.75
2022-11-26T09:16:34.106Z,37.25
2022-11-26T09:19:02.934Z,51.83
2022-11-26T09:21:30.413Z,38.85
2022-11-26T09:23:57.801Z,46.85
2022-11-26T09:26:25.768Z,41.03
2022-11-26T09:28:53.101Z,43.30
2022-11-26T09:31:20.626Z,44.75
2022-11-26T09:33:48.553Z,43.00
2022-11-26T09:36:17.033Z,41.70
2022-11-26T09:38:45.118Z,42.33
2022-11-26T09:41:38.891Z,47.08
2022-11-26T09:44:23.380Z,40.22
2022-11-26T09:47:16.071Z,39.13
2022-11-26T09:50:22.336Z,35.45
2022-11-26T09:53:02.789Z,41.80
2022-11-26T09:55:36.779Z,45.08
2022-11-26T09:58:26.726Z,26.05
2022-11-26T10:01:00.767Z,39.08
2022-11-26T10:03:38.181Z,36.20
2022-11-26T10:06:29.529Z,33.40
2022-11-26T10:09:21.270Z,30.10
2022-11-26T10:12:25.596Z,32.70
2022-11-26T10:15:03.857Z,36.45
2022-11-26T10:17:34.381Z,32.70
2022-11-26T10:20:33.129Z,38.45
2022-11-26T10:23:11.299Z,37.10
2022-11-26T10:25:54.784Z,41.45
2022-11-26T10:28:31.183Z,40.33
2022-11-26T10:31:01.924Z,35.55
2022-11-26T10:33:36.946Z,37.30
2022-11-26T10:36:07.922Z,34.22
2022-11-26T10:38:35.187Z,44.53
2022-11-26T10:41:02.491Z,39.88
2022-11-26T10:43:30.349Z,29.65
2022-11-26T10:46:03.848Z,31.48
2022-11-26T10:48:32.529Z,33.45
2022-11-26T10:51:04.139Z,32.20
2022-11-26T10:53:57.374Z,35.28
2022-11-26T10:56:41.120Z,34.75
2022-11-26T10:59:26.701Z,37.20
2022-11-26T11:01:57.765Z,22.05
2022-11-26T11:04:28.375Z,27.90
2022-11-26T11:06:56.135Z,29.83
2022-11-26T11:09:25.770Z,29.08
2022-11-26T11:12:12.000Z,29.75
2022-11-26T11:14:43.105Z,28.88
2022-11-26T11:17:29.885Z,31.88
2022-11-26T11:19:59.705Z,33.50
2022-11-26T11:22:28.113Z,34.13
2022-11-26T11:24:58.434Z,31.70
2022-11-26T11:27:38.664Z,33.25
2022-11-26T11:30:06.877Z,38.67
2022-11-26T11:32:35.995Z,31.48
2022-11-26T11:35:19.948Z,30.42
2022-11-26T11:37:55.641Z,43.42
2022-11-26T11:40:27.566Z,26.58
2022-11-26T11:43:04.362Z,33.80
2022-11-26T11:45:35.019Z,37.70
2022-11-26T11:48:27.944Z,27.63
2022-11-26T11:51:10.218Z,28.42
2022-11-26T11:54:23.425Z,28.65
2022-11-26T11:57:19.977Z,36.65
2022-11-26T12:00:15.426Z,33.85
2022-11-26T12:03:03.949Z,34.17
2022-11-26T12:05:37.973Z,27.92
2022-11-26T12:08:23.095Z,34.95
2022-11-26T12:11:31.095Z,25.58
2022-11-26T12:14:19.863Z,27.20
2022-11-26T12:16:53.674Z,25.63
2022-11-26T12:19:45.241Z,37.80
2022-11-26T12:22:22.625Z,28.42
2022-11-26T12:25:18.062Z,44.75
2022-11-26T12:27:55.449Z,37.67
2022-11-26T12:30:26.556Z,49.15
2022-11-26T12:33:03.390Z,32.28
2022-11-26T12:35:31.965Z,36.40
2022-11-26T12:38:02.266Z,32.53
2022-11-26T12:40:51.551Z,35.88
2022-11-26T12:43:20.638Z,31.23
2022-11-26T12:46:03.442Z,28.05
2022-11-26T12:48:43.650Z,33.15
2022-11-26T12:51:52.602Z,26.10
2022-11-26T12:54:34.240Z,26.02
2022-11-26T12:57:23.685Z,28.88
2022-11-26T12:59:56.724Z,31.70
2022-11-26T13:02:26.428Z,25.67
2022-11-26T13:04:54.386Z,25.52
2022-11-26T13:07:53.188Z,25.25
2022-11-26T13:10:58.354Z,28.83
2022-11-26T13:13:53.540Z,23.92
2022-11-26T13:16:20.914Z,35.28
2022-11-26T13:18:53.100Z,29.38
2022-11-26T13:21:47.848Z,23.40
2022-11-26T13:24:36.864Z,34.80
2022-11-26T13:27:13.006Z,29.33
2022-11-26T13:29:52.382Z,22.65
2022-11-26T13:32:57.082Z,22.85
2022-11-26T13:36:02.425Z,26.55
2022-11-26T13:38:52.655Z,31.15
2022-11-26T13:41:22.881Z,29.88
2022-11-26T13:44:13.098Z,33.80
2022-11-26T13:46:58.420Z,34.75
2022-11-26T13:49:47.276Z,37.33
2022-11-26T13:52:35.316Z,32.20
2022-11-26T13:55:17.829Z,27.08
2022-11-26T13:57:48.052Z,31.40
2022-11-26T14:00:32.970Z,28.38
2022-11-26T14:03:03.223Z,33.55
2022-11-26T14:06:07.892Z,42.15
2022-11-26T14:08:46.902Z,27.65
2022-11-26T14:11:40.290Z,29.70
2022-11-26T14:14:26.007Z,26.05
2022-11-26T14:17:03.874Z,248.82
2022-11-26T14:19:40.483Z,37.45
2022-11-26T14:22:07.701Z,27.05
2022-11-26T14:24:53.359Z,32.40
2022-11-26T14:27:23.879Z,28.80
2022-11-26T14:30:12.934Z,25.83
2022-11-26T14:32:54.285Z,27.80
2022-11-26T14:35:34.269Z,28.13
2022-11-26T14:38:03.985Z,35.15
2022-11-26T14:43:19.868Z,31.73
2022-11-26T14:46:06.017Z,30.38
2022-11-26T14:48:36.476Z,32.40
2022-11-26T14:51:07.746Z,33.53
2022-11-26T14:53:36.501Z,26.63
2022-11-26T14:56:04.623Z,36.38
2022-11-26T14:58:40.596Z,27.75
2022-11-26T15:01:33.396Z,31.95
2022-11-26T15:04:05.825Z,36.17
2022-11-26T15:06:39.706Z,20.65
2022-11-26T15:09:08.019Z,32.85
2022-11-26T15:11:37.865Z,27.23
2022-11-26T15:14:05.168Z,30.83
2022-11-26T15:16:38.029Z,27.17
2022-11-26T15:19:06.420Z,29.65
2022-11-26T15:21:34.532Z,33.97
2022-11-26T15:24:07.280Z,29.42
2022-11-26T15:26:35.619Z,30.60
2022-11-26T15:29:08.048Z,31.25
2022-11-26T15:31:42.768Z,33.60
2022-11-26T15:34:12.819Z,31.10
2022-11-26T15:36:43.614Z,28.88
2022-11-26T15:39:29.152Z,35.47
2022-11-26T15:41:59.760Z,35.72
2022-11-26T15:44:27.680Z,40.20
2022-11-26T15:46:56.543Z,36.75
2022-11-26T15:49:36.955Z,27.85
2022-11-26T15:52:10.098Z,33.08
2022-11-26T15:55:04.414Z,26.85
2022-11-26T15:57:35.362Z,29.02
2022-11-26T16:00:18.417Z,33.17
2022-11-26T16:02:47.960Z,34.92
2022-11-26T16:05:38.613Z,30.67
2022-11-26T16:08:23.096Z,38.42
2022-11-26T16:10:59.935Z,46.60
2022-11-26T16:13:28.204Z,40.22
2022-11-26T16:16:05.903Z,38.30
2022-11-26T16:18:43.880Z,35.80
2022-11-26T16:21:24.469Z,37.60
2022-11-26T16:23:56.181Z,40.58
2022-11-26T16:26:24.001Z,33.65
2022-11-26T16:28:51.258Z,34.63
2022-11-26T16:31:18.961Z,42.60
2022-11-26T16:33:46.613Z,38.50
2022-11-26T16:36:33.192Z,42.33
2022-11-26T16:39:00.604Z,42.00
2022-11-26T16:41:27.955Z,36.88
2022-11-26T16:43:57.371Z,35.17
2022-11-26T16:46:27.768Z,31.58
2022-11-26T16:51:23.107Z,30.63
2022-11-26T16:53:51.025Z,34.28
2022-11-26T16:56:38.188Z,35.28
2022-11-26T16:59:18.663Z,29.23
2022-11-26T17:01:47.254Z,29.15
2022-11-26T17:04:14.718Z,39.00
2022-11-26T17:06:43.238Z,42.80
2022-11-26T17:09:19.373Z,42.27
2022-11-26T17:11:47.260Z,40.53
2022-11-26T17:14:14.666Z,40.95
2022-11-26T17:16:41.996Z,31.63
2022-11-26T17:19:15.127Z,28.38
2022-11-26T17:21:42.407Z,39.38
2022-11-26T17:24:09.875Z,39.30
2022-11-26T17:26:37.350Z,40.30
2022-11-26T17:29:04.889Z,45.92
2022-11-26T17:31:32.153Z,41.08
2022-11-26T17:33:59.409Z,52.58
2022-11-26T17:36:26.789Z,34.42
2022-11-26T17:38:54.217Z,41.50
2022-11-26T17:41:22.713Z,32.35
2022-11-26T17:43:50.014Z,51.73
2022-11-26T17:46:19.692Z,38.95
2022-11-26T17:48:48.021Z,33.78
2022-11-26T17:51:16.828Z,32.38
2022-11-26T17:53:45.159Z,37.83
2022-11-26T17:56:21.775Z,32.72
2022-11-26T17:58:49.530Z,32.60
2022-11-26T18:01:17.938Z,28.42
2022-11-26T18:03:46.208Z,30.40
2022-11-26T18:06:18.861Z,35.58
2022-11-26T18:08:46.526Z,43.47
2022-11-26T18:11:15.768Z,36.15
2022-11-26T18:16:10.113Z,37.72
2022-11-26T18:18:37.349Z,29.10
2022-11-26T18:21:06.206Z,38.80
2022-11-26T18:23:34.012Z,32.63
2022-11-26T18:26:01.704Z,26.35
2022-11-26T18:28:29.789Z,35.67
2022-11-26T18:31:00.281Z,39.05
2022-11-26T18:33:27.829Z,31.42
2022-11-26T18:35:55.132Z,34.45
2022-11-26T18:38:22.734Z,25.33
2022-11-26T18:41:00.032Z,30.98
2022-11-26T18:43:27.442Z,32.20
2022-11-26T18:45:57.432Z,33.55
2022-11-26T18:48:24.778Z,47.22
2022-11-26T18:50:58.958Z,33.28
2022-11-26T18:53:27.400Z,28.40
2022-11-26T18:55:55.628Z,29.90
2022-11-26T18:58:23.496Z,36.10
2022-11-26T19:00:53.868Z,27.90
2022-11-26T19:03:21.458Z,35.65
2022-11-26T19:05:51.599Z,33.85
2022-11-26T19:08:20.311Z,31.80
2022-11-26T19:10:48.040Z,46.05
2022-11-26T19:13:15.629Z,38.47
2022-11-26T19:15:43.890Z,29.13
2022-11-26T19:18:12.987Z,38.05
2022-11-26T19:20:53.622Z,34.88
2022-11-26T19:23:24.332Z,49.22
2022-11-26T19:25:51.971Z,43.53
2022-11-26T19:28:19.458Z,39.10
2022-11-26T19:30:56.305Z,38.97
2022-11-26T19:33:23.541Z,45.72
2022-11-26T19:35:50.966Z,43.10
2022-11-26T19:38:21.098Z,43.92
2022-11-26T19:40:48.372Z,47.00
2022-11-26T19:43:15.680Z,47.97
2022-11-26T19:45:42.908Z,48.50
2022-11-26T19:48:10.348Z,75.00
2022-11-26T19:50:37.590Z,64.90
2022-11-26T19:53:04.939Z,42.70
2022-11-26T19:55:32.283Z,38.25
2022-11-26T19:57:59.483Z,35.15
2022-11-26T20:00:26.699Z,45.58
2022-11-26T20:02:53.927Z,39.28
2022-11-26T20:05:21.236Z,57.72
2022-11-26T20:07:48.737Z,44.47
2022-11-26T20:10:16.129Z,54.40
2022-11-26T20:12:43.611Z,43.45
2022-11-26T20:15:11.366Z,44.47
2022-11-26T20:17:38.824Z,56.20
2022-11-26T20:20:07.080Z,48.65
2022-11-26T20:22:36.991Z,67.72
2022-11-26T20:25:04.497Z,58.55
2022-11-26T20:27:31.802Z,45.53
2022-11-26T20:29:59.051Z,63.10
2022-11-26T20:32:26.296Z,60.35
2022-11-26T20:34:53.782Z,61.50
2022-11-26T20:37:20.986Z,51.35
2022-11-26T20:39:48.229Z,48.58
2022-11-26T20:42:15.449Z,65.85
2022-11-26T20:44:42.874Z,63.90
2022-11-26T20:47:11.060Z,53.78
2022-11-26T20:49:43.007Z,49.08
2022-11-26T20:52:10.603Z,49.83
2022-11-26T20:54:37.969Z,50.60
2022-11-26T20:57:07.528Z,50.58
2022-11-26T20:59:35.137Z,53.35
2022-11-26T21:02:03.665Z,49.17
2022-11-26T21:04:36.220Z,52.15
2022-11-26T21:07:04.303Z,47.30
2022-11-26T21:09:34.565Z,57.83
2022-11-26T21:12:04.869Z,56.65
2022-11-26T21:14:32.099Z,59.63
2022-11-26T21:16:59.542Z,51.80
2022-11-26T21:19:26.988Z,47.67
2022-11-26T21:21:57.090Z,47.92
2022-11-26T21:24:24.413Z,47.40
2022-11-26T21:26:51.586Z,48.38
2022-11-26T21:29:20.484Z,51.72
2022-11-26T21:31:47.662Z,48.70
2022-11-26T21:34:17.765Z,40.58
2022-11-26T21:36:45.400Z,62.95
2022-11-26T21:39:15.878Z,49.42
2022-11-26T21:41:43.287Z,50.25
2022-11-26T21:44:11.592Z,50.65
2022-11-26T21:46:40.106Z,48.47
2022-11-26T21:49:08.264Z,41.97
2022-11-26T21:51:35.717Z,42.15
2022-11-26T21:54:02.952Z,54.72
2022-11-26T21:56:31.814Z,45.85
2022-11-26T21:58:59.792Z,47.03
2022-11-26T22:01:29.985Z,30.88
2022-11-26T22:03:59.582Z,42.72
2022-11-26T22:06:27.494Z,47.95
2022-11-26T22:08:55.545Z,38.50
2022-11-26T22:11:25.409Z,45.67
2022-11-26T22:13:53.482Z,47.25
2022-11-26T22:16:22.375Z,46.08
2022-11-26T22:18:49.916Z,36.95
2022-11-26T22:21:22.993Z,42.90
2022-11-26T22:23:51.084Z,40.22
2022-11-26T22:26:19.107Z,46.55
2022-11-26T22:28:46.946Z,39.92
2022-11-26T22:31:25.557Z,38.90
2022-11-26T22:34:07.266Z,73.45
2022-11-26T22:36:34.859Z,120.18
2022-11-26T22:39:03.041Z,65.70
2022-11-26T22:41:30.250Z,58.85
2022-11-26T22:43:59.693Z,58.80
2022-11-26T22:46:27.181Z,60.80
2022-11-26T22:48:57.166Z,55.25
2022-11-26T22:51:25.748Z,42.25
2022-11-26T22:53:58.242Z,45.17
2022-11-26T22:56:26.077Z,38.35
2022-11-26T22:58:53.596Z,37.33
2022-11-26T23:01:24.767Z,46.72
2022-11-26T23:03:52.346Z,40.83
2022-11-26T23:06:22.069Z,43.13
2022-11-26T23:08:49.854Z,36.97
2022-11-26T23:11:26.657Z,40.25
2022-11-26T23:13:54.291Z,44.65
2022-11-26T23:16:24.094Z,33.70
2022-11-26T23:18:53.015Z,39.63
2022-11-26T23:21:25.667Z,37.03
2022-11-26T23:23:53.220Z,45.17
2022-11-26T23:26:29.063Z,39.20
2022-11-26T23:28:57.046Z,41.33
2022-11-26T23:31:32.857Z,47.88
2022-11-26T23:34:00.512Z,35.40
2022-11-26T23:36:31.259Z,39.40
2022-11-26T23:39:00.815Z,35.25
2022-11-26T23:41:28.403Z,41.20
2022-11-26T23:43:55.742Z,36.70
2022-11-26T23:46:25.548Z,35.55
2022-11-26T23:48:53.040Z,40.65
2022-11-26T23:51:25.960Z,34.95
2022-11-26T23:53:53.663Z,45.33
2022-11-26T23:56:29.877Z,33.25
2022-11-26T23:58:59.577Z,41.30
